sensor_id;sensor_type;location;lat;lon;timestamp;temperature;humidity
17813;DHT22;9030;50.792;8.320;2023-03-16T00:00:09;-2.80;99.90
17813;DHT22;9030;50.792;8.320;2023-03-16T00:02:38;-2.70;99.90
17813;DHT22;9030;50.792;8.320;2023-03-16T00:05:08;-2.70;99.90
17813;DHT22;9030;50.792;8.320;2023-03-16T00:07:35;-2.70;99.90
17813;DHT22;9030;50.792;8.320;2023-03-16T00:10:02;-2.80;99.90
17813;DHT22;9030;50.792;8.320;2023-03-16T00:12:29;-2.80;99.90
17813;DHT22;9030;50.792;8.320;2023-03-16T00:14:59;-2.80;99.90
17813;DHT22;9030;50.792;8.320;2023-03-16T00:17:28;-2.80;99.90
17813;DHT22;9030;50.792;8.320;2023-03-16T00:19:55;-2.80;99.90
17813;DHT22;9030;50.792;8.320;2023-03-16T00:22:28;-2.80;99.90
17813;DHT22;9030;50.792;8.320;2023-03-16T00:24:55;-2.80;99.90
17813;DHT22;9030;50.792;8.320;2023-03-16T00:27:24;-2.80;99.90
17813;DHT22;9030;50.792;8.320;2023-03-16T00:29:58;-2.80;99.90
17813;DHT22;9030;50.792;8.320;2023-03-16T00:32:31;-2.90;99.90
17813;DHT22;9030;50.792;8.320;2023-03-16T00:35:05;-2.90;99.90
17813;DHT22;9030;50.792;8.320;2023-03-16T00:37:36;-2.90;99.90
17813;DHT22;9030;50.792;8.320;2023-03-16T00:40:04;-3.00;99.90
17813;DHT22;9030;50.792;8.320;2023-03-16T00:42:32;-3.00;99.90
17813;DHT22;9030;50.792;8.320;2023-03-16T00:44:59;-3.00;99.90
17813;DHT22;9030;50.792;8.320;2023-03-16T00:47:29;-3.00;99.90
17813;DHT22;9030;50.792;8.320;2023-03-16T00:49:57;-3.10;99.90
17813;DHT22;9030;50.792;8.320;2023-03-16T00:52:25;-3.10;99.90
17813;DHT22;9030;50.792;8.320;2023-03-16T00:55:03;-3.10;99.90
17813;DHT22;9030;50.792;8.320;2023-03-16T00:57:29;-3.10;99.90
17813;DHT22;9030;50.792;8.320;2023-03-16T00:59:56;-3.10;99.90
17813;DHT22;9030;50.792;8.320;2023-03-16T01:02:23;-3.00;99.90
17813;DHT22;9030;50.792;8.320;2023-03-16T01:04:52;-3.10;99.90
17813;DHT22;9030;50.792;8.320;2023-03-16T01:07:23;-3.20;99.90
17813;DHT22;9030;50.792;8.320;2023-03-16T01:09:50;-3.20;99.90
17813;DHT22;9030;50.792;8.320;2023-03-16T01:12:18;-3.20;99.90
17813;DHT22;9030;50.792;8.320;2023-03-16T01:14:46;-3.10;99.90
17813;DHT22;9030;50.792;8.320;2023-03-16T01:17:14;-3.20;99.90
17813;DHT22;9030;50.792;8.320;2023-03-16T01:19:42;-3.20;99.90
17813;DHT22;9030;50.792;8.320;2023-03-16T01:22:10;-3.20;99.90
17813;DHT22;9030;50.792;8.320;2023-03-16T01:24:38;-3.20;99.90
17813;DHT22;9030;50.792;8.320;2023-03-16T01:27:07;-3.30;99.90
17813;DHT22;9030;50.792;8.320;2023-03-16T01:29:34;-3.30;99.90
17813;DHT22;9030;50.792;8.320;2023-03-16T01:32:01;-3.30;99.90
17813;DHT22;9030;50.792;8.320;2023-03-16T01:34:29;-3.30;99.90
17813;DHT22;9030;50.792;8.320;2023-03-16T01:36:57;-3.30;99.90
17813;DHT22;9030;50.792;8.320;2023-03-16T01:39:25;-3.30;99.90
17813;DHT22;9030;50.792;8.320;2023-03-16T01:41:52;-3.30;99.90
17813;DHT22;9030;50.792;8.320;2023-03-16T01:44:21;-3.30;99.90
17813;DHT22;9030;50.792;8.320;2023-03-16T01:46:52;-3.40;99.90
17813;DHT22;9030;50.792;8.320;2023-03-16T01:49:21;-3.40;99.90
17813;DHT22;9030;50.792;8.320;2023-03-16T01:51:52;-3.40;99.90
17813;DHT22;9030;50.792;8.320;2023-03-16T01:54:24;-3.50;99.90
17813;DHT22;9030;50.792;8.320;2023-03-16T01:56:57;-3.50;99.90
17813;DHT22;9030;50.792;8.320;2023-03-16T01:59:29;-3.50;99.90
17813;DHT22;9030;50.792;8.320;2023-03-16T02:01:58;-3.50;99.90
17813;DHT22;9030;50.792;8.320;2023-03-16T02:04:39;-3.50;99.90
17813;DHT22;9030;50.792;8.320;2023-03-16T02:07:08;-3.50;99.90
17813;DHT22;9030;50.792;8.320;2023-03-16T02:09:38;-3.50;99.90
17813;DHT22;9030;50.792;8.320;2023-03-16T02:12:09;-3.60;99.90
17813;DHT22;9030;50.792;8.320;2023-03-16T02:14:42;-3.50;99.90
17813;DHT22;9030;50.792;8.320;2023-03-16T02:17:09;-3.50;99.90
17813;DHT22;9030;50.792;8.320;2023-03-16T02:19:42;-3.50;99.90
17813;DHT22;9030;50.792;8.320;2023-03-16T02:22:13;-3.50;99.90
17813;DHT22;9030;50.792;8.320;2023-03-16T02:24:40;-3.50;99.90
17813;DHT22;9030;50.792;8.320;2023-03-16T02:27:11;-3.50;99.90
17813;DHT22;9030;50.792;8.320;2023-03-16T02:29:56;-3.50;99.90
17813;DHT22;9030;50.792;8.320;2023-03-16T02:32:27;-3.50;99.90
17813;DHT22;9030;50.792;8.320;2023-03-16T02:34:55;-3.40;99.90
17813;DHT22;9030;50.792;8.320;2023-03-16T02:37:22;-3.50;99.90
17813;DHT22;9030;50.792;8.320;2023-03-16T02:39:49;-3.50;99.90
17813;DHT22;9030;50.792;8.320;2023-03-16T02:42:18;-3.50;99.90
17813;DHT22;9030;50.792;8.320;2023-03-16T02:44:50;-3.50;99.90
17813;DHT22;9030;50.792;8.320;2023-03-16T02:47:26;-3.50;99.90
17813;DHT22;9030;50.792;8.320;2023-03-16T02:49:54;-3.50;99.90
17813;DHT22;9030;50.792;8.320;2023-03-16T02:52:21;-3.50;99.90
17813;DHT22;9030;50.792;8.320;2023-03-16T02:54:47;-3.50;99.90
17813;DHT22;9030;50.792;8.320;2023-03-16T02:57:14;-3.50;99.90
17813;DHT22;9030;50.792;8.320;2023-03-16T02:59:41;-3.50;99.90
17813;DHT22;9030;50.792;8.320;2023-03-16T03:02:16;-3.50;99.90
17813;DHT22;9030;50.792;8.320;2023-03-16T03:04:44;-3.50;99.90
17813;DHT22;9030;50.792;8.320;2023-03-16T03:07:11;-3.50;99.90
17813;DHT22;9030;50.792;8.320;2023-03-16T03:09:39;-3.60;99.90
17813;DHT22;9030;50.792;8.320;2023-03-16T03:12:07;-3.60;99.90
17813;DHT22;9030;50.792;8.320;2023-03-16T03:14:34;-3.60;99.90
17813;DHT22;9030;50.792;8.320;2023-03-16T03:17:02;-3.60;99.90
17813;DHT22;9030;50.792;8.320;2023-03-16T03:19:29;-3.70;99.90
17813;DHT22;9030;50.792;8.320;2023-03-16T03:21:59;-3.60;99.90
17813;DHT22;9030;50.792;8.320;2023-03-16T03:24:28;-3.60;99.90
17813;DHT22;9030;50.792;8.320;2023-03-16T03:26:56;-3.60;99.90
17813;DHT22;9030;50.792;8.320;2023-03-16T03:29:23;-3.60;99.90
17813;DHT22;9030;50.792;8.320;2023-03-16T03:31:50;-3.70;99.90
17813;DHT22;9030;50.792;8.320;2023-03-16T03:34:16;-3.70;99.90
17813;DHT22;9030;50.792;8.320;2023-03-16T03:36:43;-3.60;99.90
17813;DHT22;9030;50.792;8.320;2023-03-16T03:39:19;-3.70;99.90
17813;DHT22;9030;50.792;8.320;2023-03-16T03:41:46;-3.70;99.90
17813;DHT22;9030;50.792;8.320;2023-03-16T03:44:13;-3.70;99.90
17813;DHT22;9030;50.792;8.320;2023-03-16T03:46:39;-3.80;99.90
17813;DHT22;9030;50.792;8.320;2023-03-16T03:49:08;-3.80;99.90
17813;DHT22;9030;50.792;8.320;2023-03-16T03:51:35;-3.70;99.90
17813;DHT22;9030;50.792;8.320;2023-03-16T03:54:02;-3.80;99.90
17813;DHT22;9030;50.792;8.320;2023-03-16T03:56:30;-3.90;99.90
17813;DHT22;9030;50.792;8.320;2023-03-16T03:58:57;-3.80;99.90
17813;DHT22;9030;50.792;8.320;2023-03-16T04:01:32;-3.90;99.90
17813;DHT22;9030;50.792;8.320;2023-03-16T04:03:58;-3.90;99.90
17813;DHT22;9030;50.792;8.320;2023-03-16T04:06:25;-3.90;99.90
17813;DHT22;9030;50.792;8.320;2023-03-16T04:08:52;-3.90;99.90
17813;DHT22;9030;50.792;8.320;2023-03-16T04:11:19;-4.00;99.90
17813;DHT22;9030;50.792;8.320;2023-03-16T04:13:50;-4.00;99.90
17813;DHT22;9030;50.792;8.320;2023-03-16T04:16:17;-3.90;99.90
17813;DHT22;9030;50.792;8.320;2023-03-16T04:18:44;-3.90;99.90
17813;DHT22;9030;50.792;8.320;2023-03-16T04:21:14;-3.90;99.90
17813;DHT22;9030;50.792;8.320;2023-03-16T04:23:41;-3.90;99.90
17813;DHT22;9030;50.792;8.320;2023-03-16T04:26:08;-3.90;99.90
17813;DHT22;9030;50.792;8.320;2023-03-16T04:28:35;-3.90;99.90
17813;DHT22;9030;50.792;8.320;2023-03-16T04:31:04;-3.90;99.90
17813;DHT22;9030;50.792;8.320;2023-03-16T04:33:32;-4.00;99.90
17813;DHT22;9030;50.792;8.320;2023-03-16T04:35:59;-4.00;99.90
17813;DHT22;9030;50.792;8.320;2023-03-16T04:38:29;-3.90;99.90
17813;DHT22;9030;50.792;8.320;2023-03-16T04:40:58;-3.90;99.90
17813;DHT22;9030;50.792;8.320;2023-03-16T04:43:25;-3.90;99.90
17813;DHT22;9030;50.792;8.320;2023-03-16T04:45:52;-4.00;99.90
17813;DHT22;9030;50.792;8.320;2023-03-16T04:48:20;-4.10;99.90
17813;DHT22;9030;50.792;8.320;2023-03-16T04:50:47;-4.00;99.90
17813;DHT22;9030;50.792;8.320;2023-03-16T04:53:14;-4.10;99.90
17813;DHT22;9030;50.792;8.320;2023-03-16T04:55:43;-4.10;99.90
17813;DHT22;9030;50.792;8.320;2023-03-16T04:58:09;-4.00;99.90
17813;DHT22;9030;50.792;8.320;2023-03-16T05:00:39;-4.10;99.90
17813;DHT22;9030;50.792;8.320;2023-03-16T05:03:06;-4.10;99.90
17813;DHT22;9030;50.792;8.320;2023-03-16T05:05:36;-4.10;99.90
17813;DHT22;9030;50.792;8.320;2023-03-16T05:08:03;-4.10;99.90
17813;DHT22;9030;50.792;8.320;2023-03-16T05:10:31;-4.00;99.90
17813;DHT22;9030;50.792;8.320;2023-03-16T05:13:01;-4.10;99.90
17813;DHT22;9030;50.792;8.320;2023-03-16T05:15:28;-4.10;99.90
17813;DHT22;9030;50.792;8.320;2023-03-16T05:17:55;-4.20;99.90
17813;DHT22;9030;50.792;8.320;2023-03-16T05:20:22;-4.10;99.90
17813;DHT22;9030;50.792;8.320;2023-03-16T05:22:51;-4.20;99.90
17813;DHT22;9030;50.792;8.320;2023-03-16T05:25:18;-4.20;99.90
17813;DHT22;9030;50.792;8.320;2023-03-16T05:27:48;-4.10;99.90
17813;DHT22;9030;50.792;8.320;2023-03-16T05:30:16;-4.10;99.90
17813;DHT22;9030;50.792;8.320;2023-03-16T05:32:44;-4.10;99.90
17813;DHT22;9030;50.792;8.320;2023-03-16T05:35:11;-4.10;99.90
17813;DHT22;9030;50.792;8.320;2023-03-16T05:37:46;-4.20;99.90
17813;DHT22;9030;50.792;8.320;2023-03-16T05:40:15;-4.10;99.90
17813;DHT22;9030;50.792;8.320;2023-03-16T05:42:43;-4.20;99.90
17813;DHT22;9030;50.792;8.320;2023-03-16T05:45:20;-4.20;99.90
17813;DHT22;9030;50.792;8.320;2023-03-16T05:47:48;-4.10;99.90
17813;DHT22;9030;50.792;8.320;2023-03-16T05:50:15;-4.10;99.90
17813;DHT22;9030;50.792;8.320;2023-03-16T05:52:43;-4.10;99.90
17813;DHT22;9030;50.792;8.320;2023-03-16T05:55:16;-4.10;99.90
17813;DHT22;9030;50.792;8.320;2023-03-16T05:57:43;-4.10;99.90
17813;DHT22;9030;50.792;8.320;2023-03-16T06:00:12;-4.10;99.90
17813;DHT22;9030;50.792;8.320;2023-03-16T06:02:41;-4.00;99.90
17813;DHT22;9030;50.792;8.320;2023-03-16T06:05:08;-4.00;99.90
17813;DHT22;9030;50.792;8.320;2023-03-16T06:07:43;-4.00;99.90
17813;DHT22;9030;50.792;8.320;2023-03-16T06:10:11;-3.90;99.90
17813;DHT22;9030;50.792;8.320;2023-03-16T06:12:39;-3.80;99.90
17813;DHT22;9030;50.792;8.320;2023-03-16T06:15:08;-3.80;99.90
17813;DHT22;9030;50.792;8.320;2023-03-16T06:17:37;-3.70;99.90
17813;DHT22;9030;50.792;8.320;2023-03-16T06:20:07;-3.60;99.90
17813;DHT22;9030;50.792;8.320;2023-03-16T06:22:36;-3.60;99.90
17813;DHT22;9030;50.792;8.320;2023-03-16T06:25:03;-3.60;99.90
17813;DHT22;9030;50.792;8.320;2023-03-16T06:27:37;-3.50;99.90
17813;DHT22;9030;50.792;8.320;2023-03-16T06:30:08;-3.40;99.90
17813;DHT22;9030;50.792;8.320;2023-03-16T06:32:36;-3.30;99.90
17813;DHT22;9030;50.792;8.320;2023-03-16T06:35:06;-3.30;99.90
17813;DHT22;9030;50.792;8.320;2023-03-16T06:37:34;-3.20;99.90
17813;DHT22;9030;50.792;8.320;2023-03-16T06:40:02;-3.10;99.90
17813;DHT22;9030;50.792;8.320;2023-03-16T06:42:29;-2.90;99.90
17813;DHT22;9030;50.792;8.320;2023-03-16T06:44:56;-2.80;99.90
17813;DHT22;9030;50.792;8.320;2023-03-16T06:47:26;-2.70;99.90
17813;DHT22;9030;50.792;8.320;2023-03-16T06:49:52;-2.50;99.90
17813;DHT22;9030;50.792;8.320;2023-03-16T06:52:20;-2.20;99.90
17813;DHT22;9030;50.792;8.320;2023-03-16T06:54:46;-2.10;99.90
17813;DHT22;9030;50.792;8.320;2023-03-16T06:57:13;-2.00;99.90
17813;DHT22;9030;50.792;8.320;2023-03-16T06:59:42;-1.90;99.90
17813;DHT22;9030;50.792;8.320;2023-03-16T07:02:11;-1.90;99.90
17813;DHT22;9030;50.792;8.320;2023-03-16T07:04:40;-1.70;99.90
17813;DHT22;9030;50.792;8.320;2023-03-16T07:07:09;-1.50;99.90
17813;DHT22;9030;50.792;8.320;2023-03-16T07:09:37;-1.50;99.90
17813;DHT22;9030;50.792;8.320;2023-03-16T07:12:04;-1.50;99.90
17813;DHT22;9030;50.792;8.320;2023-03-16T07:14:31;-1.30;99.90
17813;DHT22;9030;50.792;8.320;2023-03-16T07:16:57;-1.20;99.90
17813;DHT22;9030;50.792;8.320;2023-03-16T07:19:24;-1.20;99.90
17813;DHT22;9030;50.792;8.320;2023-03-16T07:21:53;-1.10;99.90
17813;DHT22;9030;50.792;8.320;2023-03-16T07:24:20;-0.80;99.90
17813;DHT22;9030;50.792;8.320;2023-03-16T07:26:47;-0.50;99.90
17813;DHT22;9030;50.792;8.320;2023-03-16T07:29:13;-0.40;99.90
17813;DHT22;9030;50.792;8.320;2023-03-16T07:31:41;-0.20;99.90
17813;DHT22;9030;50.792;8.320;2023-03-16T07:34:08;0.10;99.90
17813;DHT22;9030;50.792;8.320;2023-03-16T07:36:36;0.30;99.90
17813;DHT22;9030;50.792;8.320;2023-03-16T07:39:04;0.60;99.90
17813;DHT22;9030;50.792;8.320;2023-03-16T07:41:31;0.80;99.90
17813;DHT22;9030;50.792;8.320;2023-03-16T07:43:58;1.20;99.90
17813;DHT22;9030;50.792;8.320;2023-03-16T07:46:25;1.40;99.90
17813;DHT22;9030;50.792;8.320;2023-03-16T07:48:51;1.50;99.90
17813;DHT22;9030;50.792;8.320;2023-03-16T07:51:18;1.70;99.90
17813;DHT22;9030;50.792;8.320;2023-03-16T07:53:45;1.80;99.90
17813;DHT22;9030;50.792;8.320;2023-03-16T07:56:14;1.70;99.90
17813;DHT22;9030;50.792;8.320;2023-03-16T07:58:40;1.60;99.90
17813;DHT22;9030;50.792;8.320;2023-03-16T08:01:07;1.90;99.90
17813;DHT22;9030;50.792;8.320;2023-03-16T08:03:35;2.20;99.90
17813;DHT22;9030;50.792;8.320;2023-03-16T08:06:02;2.70;99.90
17813;DHT22;9030;50.792;8.320;2023-03-16T08:08:29;2.70;99.90
17813;DHT22;9030;50.792;8.320;2023-03-16T08:10:57;3.00;99.90
17813;DHT22;9030;50.792;8.320;2023-03-16T08:13:25;2.60;99.90
17813;DHT22;9030;50.792;8.320;2023-03-16T08:15:52;2.50;99.90
17813;DHT22;9030;50.792;8.320;2023-03-16T08:18:23;2.70;99.90
17813;DHT22;9030;50.792;8.320;2023-03-16T08:20:50;2.80;99.90
17813;DHT22;9030;50.792;8.320;2023-03-16T08:23:17;2.80;99.90
17813;DHT22;9030;50.792;8.320;2023-03-16T08:25:45;2.80;99.90
17813;DHT22;9030;50.792;8.320;2023-03-16T08:28:13;2.80;99.90
17813;DHT22;9030;50.792;8.320;2023-03-16T08:30:45;3.20;99.90
17813;DHT22;9030;50.792;8.320;2023-03-16T08:33:12;3.50;99.90
17813;DHT22;9030;50.792;8.320;2023-03-16T08:35:41;3.80;99.90
17813;DHT22;9030;50.792;8.320;2023-03-16T08:38:09;4.10;99.90
17813;DHT22;9030;50.792;8.320;2023-03-16T08:40:36;4.40;99.90
17813;DHT22;9030;50.792;8.320;2023-03-16T08:43:06;4.70;99.90
17813;DHT22;9030;50.792;8.320;2023-03-16T08:45:33;4.90;99.90
17813;DHT22;9030;50.792;8.320;2023-03-16T08:48:01;4.80;99.90
17813;DHT22;9030;50.792;8.320;2023-03-16T08:50:29;5.10;99.90
17813;DHT22;9030;50.792;8.320;2023-03-16T08:52:56;5.40;99.90
17813;DHT22;9030;50.792;8.320;2023-03-16T08:55:23;5.50;99.90
17813;DHT22;9030;50.792;8.320;2023-03-16T08:57:51;5.60;99.90
17813;DHT22;9030;50.792;8.320;2023-03-16T09:00:18;5.70;99.90
17813;DHT22;9030;50.792;8.320;2023-03-16T09:02:45;6.20;99.90
17813;DHT22;9030;50.792;8.320;2023-03-16T09:05:14;6.40;99.90
17813;DHT22;9030;50.792;8.320;2023-03-16T09:07:42;6.20;99.90
17813;DHT22;9030;50.792;8.320;2023-03-16T09:10:10;5.30;99.90
17813;DHT22;9030;50.792;8.320;2023-03-16T09:12:40;5.40;99.90
17813;DHT22;9030;50.792;8.320;2023-03-16T09:15:08;5.50;99.90
17813;DHT22;9030;50.792;8.320;2023-03-16T09:17:36;5.70;99.90
17813;DHT22;9030;50.792;8.320;2023-03-16T09:20:05;5.40;99.90
17813;DHT22;9030;50.792;8.320;2023-03-16T09:22:35;5.50;99.90
17813;DHT22;9030;50.792;8.320;2023-03-16T09:25:03;5.20;99.90
17813;DHT22;9030;50.792;8.320;2023-03-16T09:27:31;5.40;99.90
17813;DHT22;9030;50.792;8.320;2023-03-16T09:29:58;5.50;99.90
17813;DHT22;9030;50.792;8.320;2023-03-16T09:32:26;5.40;99.90
17813;DHT22;9030;50.792;8.320;2023-03-16T09:34:53;5.60;99.90
17813;DHT22;9030;50.792;8.320;2023-03-16T09:37:21;5.50;99.90
17813;DHT22;9030;50.792;8.320;2023-03-16T09:39:49;5.60;99.90
17813;DHT22;9030;50.792;8.320;2023-03-16T09:42:18;5.90;99.90
17813;DHT22;9030;50.792;8.320;2023-03-16T09:44:57;6.50;99.90
17813;DHT22;9030;50.792;8.320;2023-03-16T09:47:27;6.30;99.90
17813;DHT22;9030;50.792;8.320;2023-03-16T09:49:57;6.30;99.90
17813;DHT22;9030;50.792;8.320;2023-03-16T09:52:30;6.70;99.90
17813;DHT22;9030;50.792;8.320;2023-03-16T09:55:04;6.70;99.90
17813;DHT22;9030;50.792;8.320;2023-03-16T09:57:35;6.60;99.90
17813;DHT22;9030;50.792;8.320;2023-03-16T10:00:14;6.50;99.90
17813;DHT22;9030;50.792;8.320;2023-03-16T10:02:57;6.20;99.90
17813;DHT22;9030;50.792;8.320;2023-03-16T10:05:29;5.90;99.90
17813;DHT22;9030;50.792;8.320;2023-03-16T10:08:05;5.80;99.90
17813;DHT22;9030;50.792;8.320;2023-03-16T10:10:54;5.70;99.90
17813;DHT22;9030;50.792;8.320;2023-03-16T10:13:31;5.90;99.90
17813;DHT22;9030;50.792;8.320;2023-03-16T10:16:04;6.30;99.90
17813;DHT22;9030;50.792;8.320;2023-03-16T10:18:37;6.40;99.90
17813;DHT22;9030;50.792;8.320;2023-03-16T10:21:10;5.80;99.90
17813;DHT22;9030;50.792;8.320;2023-03-16T10:23:37;5.50;99.90
17813;DHT22;9030;50.792;8.320;2023-03-16T10:26:11;5.60;99.90
17813;DHT22;9030;50.792;8.320;2023-03-16T10:28:38;5.60;99.90
17813;DHT22;9030;50.792;8.320;2023-03-16T10:31:09;5.60;99.90
17813;DHT22;9030;50.792;8.320;2023-03-16T10:33:35;5.70;99.90
17813;DHT22;9030;50.792;8.320;2023-03-16T10:36:11;5.80;99.90
17813;DHT22;9030;50.792;8.320;2023-03-16T10:38:41;6.00;99.90
17813;DHT22;9030;50.792;8.320;2023-03-16T10:41:26;6.20;99.90
17813;DHT22;9030;50.792;8.320;2023-03-16T10:43:55;6.30;99.90
17813;DHT22;9030;50.792;8.320;2023-03-16T10:46:24;6.40;99.90
17813;DHT22;9030;50.792;8.320;2023-03-16T10:48:53;6.70;99.90
17813;DHT22;9030;50.792;8.320;2023-03-16T10:51:26;6.70;99.90
17813;DHT22;9030;50.792;8.320;2023-03-16T10:54:05;6.90;99.90
17813;DHT22;9030;50.792;8.320;2023-03-16T10:56:36;7.10;99.90
17813;DHT22;9030;50.792;8.320;2023-03-16T10:59:13;7.30;99.90
17813;DHT22;9030;50.792;8.320;2023-03-16T11:01:44;7.30;99.90
17813;DHT22;9030;50.792;8.320;2023-03-16T11:04:14;7.00;99.90
17813;DHT22;9030;50.792;8.320;2023-03-16T11:06:48;7.20;99.90
17813;DHT22;9030;50.792;8.320;2023-03-16T11:09:19;7.20;99.90
17813;DHT22;9030;50.792;8.320;2023-03-16T11:11:50;7.50;99.90
17813;DHT22;9030;50.792;8.320;2023-03-16T11:14:20;7.60;99.90
17813;DHT22;9030;50.792;8.320;2023-03-16T11:16:50;7.40;99.90
17813;DHT22;9030;50.792;8.320;2023-03-16T11:19:21;7.20;99.90
17813;DHT22;9030;50.792;8.320;2023-03-16T11:21:51;7.40;99.90
17813;DHT22;9030;50.792;8.320;2023-03-16T11:24:23;7.80;99.90
17813;DHT22;9030;50.792;8.320;2023-03-16T11:26:56;7.80;99.90
17813;DHT22;9030;50.792;8.320;2023-03-16T11:29:27;7.30;99.90
17813;DHT22;9030;50.792;8.320;2023-03-16T11:32:02;7.40;99.90
17813;DHT22;9030;50.792;8.320;2023-03-16T11:34:31;7.50;99.90
17813;DHT22;9030;50.792;8.320;2023-03-16T11:37:04;7.40;99.90
17813;DHT22;9030;50.792;8.320;2023-03-16T11:39:40;7.00;99.90
17813;DHT22;9030;50.792;8.320;2023-03-16T11:42:28;7.20;99.90
17813;DHT22;9030;50.792;8.320;2023-03-16T11:45:00;7.10;99.90
17813;DHT22;9030;50.792;8.320;2023-03-16T11:50:18;7.30;99.90
17813;DHT22;9030;50.792;8.320;2023-03-16T11:52:54;7.40;99.90
17813;DHT22;9030;50.792;8.320;2023-03-16T11:55:31;7.40;99.90
17813;DHT22;9030;50.792;8.320;2023-03-16T11:58:15;7.20;99.90
17813;DHT22;9030;50.792;8.320;2023-03-16T12:00:51;7.30;99.90
17813;DHT22;9030;50.792;8.320;2023-03-16T12:06:25;7.10;99.90
17813;DHT22;9030;50.792;8.320;2023-03-16T12:11:52;7.20;99.90
17813;DHT22;9030;50.792;8.320;2023-03-16T12:14:24;7.30;99.90
17813;DHT22;9030;50.792;8.320;2023-03-16T12:16:54;7.30;99.90
17813;DHT22;9030;50.792;8.320;2023-03-16T12:19:28;7.20;99.90
17813;DHT22;9030;50.792;8.320;2023-03-16T12:22:04;7.00;99.90
17813;DHT22;9030;50.792;8.320;2023-03-16T12:24:40;6.90;99.90
17813;DHT22;9030;50.792;8.320;2023-03-16T12:27:12;6.80;99.90
17813;DHT22;9030;50.792;8.320;2023-03-16T12:29:55;6.80;99.90
17813;DHT22;9030;50.792;8.320;2023-03-16T12:32:35;6.90;99.90
17813;DHT22;9030;50.792;8.320;2023-03-16T12:35:15;7.10;99.90
17813;DHT22;9030;50.792;8.320;2023-03-16T12:37:49;7.40;99.90
17813;DHT22;9030;50.792;8.320;2023-03-16T12:40:28;7.60;99.90
17813;DHT22;9030;50.792;8.320;2023-03-16T12:43:10;7.80;99.90
17813;DHT22;9030;50.792;8.320;2023-03-16T12:45:44;7.90;99.90
17813;DHT22;9030;50.792;8.320;2023-03-16T12:48:23;8.00;99.90
17813;DHT22;9030;50.792;8.320;2023-03-16T12:50:53;8.10;99.90
17813;DHT22;9030;50.792;8.320;2023-03-16T12:53:26;8.20;99.90
17813;DHT22;9030;50.792;8.320;2023-03-16T12:55:55;8.20;99.90
17813;DHT22;9030;50.792;8.320;2023-03-16T12:58:23;7.90;99.90
17813;DHT22;9030;50.792;8.320;2023-03-16T13:01:07;8.00;99.90
17813;DHT22;9030;50.792;8.320;2023-03-16T13:03:36;7.90;99.90
17813;DHT22;9030;50.792;8.320;2023-03-16T13:06:04;8.10;99.90
17813;DHT22;9030;50.792;8.320;2023-03-16T13:08:40;8.30;99.90
17813;DHT22;9030;50.792;8.320;2023-03-16T13:11:09;8.40;99.90
17813;DHT22;9030;50.792;8.320;2023-03-16T13:13:48;8.70;99.90
17813;DHT22;9030;50.792;8.320;2023-03-16T13:16:26;8.70;99.90
17813;DHT22;9030;50.792;8.320;2023-03-16T13:18:53;8.70;99.90
17813;DHT22;9030;50.792;8.320;2023-03-16T13:21:21;8.60;99.90
17813;DHT22;9030;50.792;8.320;2023-03-16T13:24:11;8.40;99.90
17813;DHT22;9030;50.792;8.320;2023-03-16T13:26:40;8.60;99.90
17813;DHT22;9030;50.792;8.320;2023-03-16T13:29:27;8.50;99.90
17813;DHT22;9030;50.792;8.320;2023-03-16T13:31:57;8.40;99.90
17813;DHT22;9030;50.792;8.320;2023-03-16T13:34:27;8.40;99.90
17813;DHT22;9030;50.792;8.320;2023-03-16T13:36:56;8.50;99.90
17813;DHT22;9030;50.792;8.320;2023-03-16T13:39:26;8.20;99.90
17813;DHT22;9030;50.792;8.320;2023-03-16T13:42:01;8.30;99.90
17813;DHT22;9030;50.792;8.320;2023-03-16T13:44:29;8.40;99.90
17813;DHT22;9030;50.792;8.320;2023-03-16T13:47:02;8.40;99.90
17813;DHT22;9030;50.792;8.320;2023-03-16T13:49:29;8.40;99.90
17813;DHT22;9030;50.792;8.320;2023-03-16T13:51:56;8.40;99.90
17813;DHT22;9030;50.792;8.320;2023-03-16T13:54:24;8.30;99.90
17813;DHT22;9030;50.792;8.320;2023-03-16T13:56:54;8.40;99.90
17813;DHT22;9030;50.792;8.320;2023-03-16T13:59:22;8.30;99.90
17813;DHT22;9030;50.792;8.320;2023-03-16T14:01:54;8.40;99.90
17813;DHT22;9030;50.792;8.320;2023-03-16T14:04:25;8.30;99.90
17813;DHT22;9030;50.792;8.320;2023-03-16T14:06:54;8.30;99.90
17813;DHT22;9030;50.792;8.320;2023-03-16T14:09:23;8.30;99.90
17813;DHT22;9030;50.792;8.320;2023-03-16T14:11:52;8.40;99.90
17813;DHT22;9030;50.792;8.320;2023-03-16T14:14:28;8.30;99.90
17813;DHT22;9030;50.792;8.320;2023-03-16T14:17:00;8.30;99.90
17813;DHT22;9030;50.792;8.320;2023-03-16T14:19:37;8.20;99.90
17813;DHT22;9030;50.792;8.320;2023-03-16T14:22:14;8.20;99.90
17813;DHT22;9030;50.792;8.320;2023-03-16T14:24:41;8.30;99.90
17813;DHT22;9030;50.792;8.320;2023-03-16T14:27:22;8.40;99.90
17813;DHT22;9030;50.792;8.320;2023-03-16T14:29:56;8.40;99.90
17813;DHT22;9030;50.792;8.320;2023-03-16T14:32:25;8.50;99.90
17813;DHT22;9030;50.792;8.320;2023-03-16T14:35:08;8.60;99.90
17813;DHT22;9030;50.792;8.320;2023-03-16T14:37:37;8.80;99.90
17813;DHT22;9030;50.792;8.320;2023-03-16T14:40:06;8.90;99.90
17813;DHT22;9030;50.792;8.320;2023-03-16T14:42:33;8.80;99.90
17813;DHT22;9030;50.792;8.320;2023-03-16T14:45:02;8.70;99.90
17813;DHT22;9030;50.792;8.320;2023-03-16T14:47:36;8.60;99.90
17813;DHT22;9030;50.792;8.320;2023-03-16T14:50:11;8.50;99.90
17813;DHT22;9030;50.792;8.320;2023-03-16T14:52:39;8.60;99.90
17813;DHT22;9030;50.792;8.320;2023-03-16T14:55:12;8.60;99.90
17813;DHT22;9030;50.792;8.320;2023-03-16T14:57:39;8.60;99.90
17813;DHT22;9030;50.792;8.320;2023-03-16T15:00:08;8.40;99.90
17813;DHT22;9030;50.792;8.320;2023-03-16T15:02:36;8.40;99.90
17813;DHT22;9030;50.792;8.320;2023-03-16T15:05:04;8.30;99.90
17813;DHT22;9030;50.792;8.320;2023-03-16T15:07:35;8.40;99.90
17813;DHT22;9030;50.792;8.320;2023-03-16T15:10:06;8.30;99.90
17813;DHT22;9030;50.792;8.320;2023-03-16T15:12:35;8.40;99.90
17813;DHT22;9030;50.792;8.320;2023-03-16T15:15:08;8.20;99.90
17813;DHT22;9030;50.792;8.320;2023-03-16T15:17:41;8.20;99.90
17813;DHT22;9030;50.792;8.320;2023-03-16T15:20:10;8.30;99.90
17813;DHT22;9030;50.792;8.320;2023-03-16T15:22:39;8.20;99.90
17813;DHT22;9030;50.792;8.320;2023-03-16T15:25:19;8.20;99.90
17813;DHT22;9030;50.792;8.320;2023-03-16T15:27:47;8.10;99.90
17813;DHT22;9030;50.792;8.320;2023-03-16T15:30:16;8.20;99.90
17813;DHT22;9030;50.792;8.320;2023-03-16T15:32:43;8.20;99.90
17813;DHT22;9030;50.792;8.320;2023-03-16T15:35:10;8.20;99.90
17813;DHT22;9030;50.792;8.320;2023-03-16T15:37:38;8.10;99.90
17813;DHT22;9030;50.792;8.320;2023-03-16T15:40:15;8.20;99.90
17813;DHT22;9030;50.792;8.320;2023-03-16T15:42:41;8.20;99.90
17813;DHT22;9030;50.792;8.320;2023-03-16T15:45:11;8.20;99.90
17813;DHT22;9030;50.792;8.320;2023-03-16T15:47:38;8.20;99.90
17813;DHT22;9030;50.792;8.320;2023-03-16T15:50:06;8.00;99.90
17813;DHT22;9030;50.792;8.320;2023-03-16T15:52:36;7.90;99.90
17813;DHT22;9030;50.792;8.320;2023-03-16T15:55:05;7.90;99.90
17813;DHT22;9030;50.792;8.320;2023-03-16T15:57:35;7.90;99.90
17813;DHT22;9030;50.792;8.320;2023-03-16T16:00:02;7.90;99.90
17813;DHT22;9030;50.792;8.320;2023-03-16T16:02:31;7.90;99.90
17813;DHT22;9030;50.792;8.320;2023-03-16T16:04:58;7.80;99.90
17813;DHT22;9030;50.792;8.320;2023-03-16T16:07:25;7.80;99.90
17813;DHT22;9030;50.792;8.320;2023-03-16T16:09:52;7.80;99.90
17813;DHT22;9030;50.792;8.320;2023-03-16T16:12:20;7.70;99.90
17813;DHT22;9030;50.792;8.320;2023-03-16T16:14:52;7.70;99.90
17813;DHT22;9030;50.792;8.320;2023-03-16T16:17:20;7.60;99.90
17813;DHT22;9030;50.792;8.320;2023-03-16T16:19:50;7.70;99.90